Time;durP1;ratioP1;P1;durP2;ratioP2;P2;SDS_P1;SDS_P2;PMS_P1;PMS_P2;Temp;Humidity;BMP_temperature;BMP_pressure;BME280_temperature;BME280_humidity;BME280_pressure;Samples;Min_cycle;Max_cycle;Signal;HPM_P1;HPM_P2
2022/04/26 03:36:14;;;;;;;13.90;8.03;;;;;;;;;;6261996;22;20186;-88
2022/04/26 03:39:20;;;;;;;11.27;7.40;;;;;;;;;;6261374;22;20166;-88
2022/04/26 03:42:26;;;;;;;15.30;7.60;;;;;;;;;;6259370;22;20241;-88
2022/04/26 03:45:31;;;;;;;16.53;8.30;;;;;;;;;;6259924;22;20154;-88
2022/04/26 03:48:36;;;;;;;13.80;7.60;;;;;;;;;;6258723;22;20166;-87
2022/04/26 03:51:41;;;;;;;14.30;7.73;;;;;;;;;;6258464;22;20499;-89
2022/04/26 03:54:47;;;;;;;12.00;7.63;;;;;;;;;;6259259;22;20170;-87
2022/04/26 03:57:52;;;;;;;14.07;7.67;;;;;;;;;;6259309;22;20166;-88
2022/04/26 04:01:25;;;;;;;12.83;8.00;;;;;;;;;;6258806;22;20177;-88
2022/04/26 04:04:31;;;;;;;12.83;7.47;;;;;;;;;;6258620;22;20197;-88
2022/04/26 04:07:36;;;;;;;13.20;8.17;;;;;;;;;;6260251;22;20167;-88
2022/04/26 04:10:48;;;;;;;15.83;8.03;;;;;;;;;;6258597;22;20262;-88
2022/04/26 04:13:54;;;;;;;14.27;8.23;;;;;;;;;;6257726;22;20244;-89
2022/04/26 04:17:00;;;;;;;13.40;8.13;;;;;;;;;;6259692;22;20219;-88
2022/04/26 04:20:05;;;;;;;14.63;8.27;;;;;;;;;;6258784;22;20214;-87
2022/04/26 04:23:10;;;;;;;16.00;8.63;;;;;;;;;;6258766;22;20194;-87
2022/04/26 04:26:17;;;;;;;14.10;8.70;;;;;;;;;;6260171;22;20806;-86
2022/04/26 04:29:22;;;;;;;14.47;8.43;;;;;;;;;;6258956;22;20170;-87
2022/04/26 04:32:27;;;;;;;18.30;9.30;;;;;;;;;;6257443;22;20234;-87
2022/04/26 04:35:33;;;;;;;19.47;8.90;;;;;;;;;;6259301;22;20225;-88
2022/04/26 04:38:38;;;;;;;16.60;9.37;;;;;;;;;;6259954;22;20150;-88
2022/04/26 04:41:45;;;;;;;17.00;9.37;;;;;;;;;;6260569;22;20206;-88
2022/04/26 04:44:50;;;;;;;16.63;8.57;;;;;;;;;;6262635;22;20166;-88
2022/04/26 04:47:55;;;;;;;19.90;10.13;;;;;;;;;;6259691;22;20167;-88
2022/04/26 04:51:07;;;;;;;16.93;9.40;;;;;;;;;;6262187;22;20213;-88
2022/04/26 04:54:13;;;;;;;17.57;9.47;;;;;;;;;;6260795;22;20215;-89
2022/04/26 04:57:21;;;;;;;17.40;9.80;;;;;;;;;;6261877;22;20155;-88
2022/04/26 05:00:26;;;;;;;19.37;9.53;;;;;;;;;;6263339;22;20186;-87
2022/04/26 05:03:31;;;;;;;20.40;10.20;;;;;;;;;;6264110;22;20210;-88
2022/04/26 05:10:27;;;;;;;17.13;9.70;;;;;;;;;;6245795;22;20138;-89
2022/04/26 05:13:41;;;;;;;21.70;11.30;;;;;;;;;;6247243;23;20217;-88
2022/04/26 05:16:47;;;;;;;18.00;9.47;;;;;;;;;;6245378;23;20213;-87
2022/04/26 05:19:53;;;;;;;17.30;10.13;;;;;;;;;;6243904;23;20174;-89
2022/04/26 05:26:24;;;;;;;20.13;9.70;;;;;;;;;;6246391;22;20222;-89
2022/04/26 05:29:32;;;;;;;22.93;11.23;;;;;;;;;;6246066;22;20167;-88
2022/04/26 05:32:38;;;;;;;19.63;10.80;;;;;;;;;;6245628;23;20170;-89
2022/04/26 05:35:44;;;;;;;20.90;11.77;;;;;;;;;;6247414;23;20158;-88
2022/04/26 05:38:59;;;;;;;25.07;12.50;;;;;;;;;;6229496;22;20154;-88
2022/04/26 05:42:06;;;;;;;22.47;11.80;;;;;;;;;;6247112;22;20516;-88
2022/04/26 05:45:13;;;;;;;21.70;11.23;;;;;;;;;;6245537;22;20170;-88
2022/04/26 05:48:18;;;;;;;21.02;11.55;;;;;;;;;;6244559;23;20162;-88
2022/04/26 05:51:24;;;;;;;21.17;11.00;;;;;;;;;;6244984;23;20174;-87
2022/04/26 05:54:29;;;;;;;18.57;10.80;;;;;;;;;;6244184;22;20150;-88
2022/04/26 05:57:37;;;;;;;19.87;10.90;;;;;;;;;;6245642;22;20171;-88
2022/04/26 06:00:44;;;;;;;20.83;11.07;;;;;;;;;;6245341;23;20166;-89
2022/04/26 06:03:51;;;;;;;20.88;11.23;;;;;;;;;;6246926;23;20189;-89
2022/04/26 06:06:56;;;;;;;18.88;10.43;;;;;;;;;;6261776;22;20166;-90
2022/04/26 06:10:02;;;;;;;20.65;11.00;;;;;;;;;;6262073;22;20178;-90
2022/04/26 06:13:08;;;;;;;20.30;10.93;;;;;;;;;;6263439;22;20197;-90
2022/04/26 06:16:15;;;;;;;18.20;10.35;;;;;;;;;;6263535;22;20221;-89
2022/04/26 06:19:20;;;;;;;15.25;9.23;;;;;;;;;;6261879;22;20221;-89
2022/04/26 06:22:25;;;;;;;19.75;10.48;;;;;;;;;;6261917;22;20174;-89
2022/04/26 06:25:32;;;;;;;22.80;10.65;;;;;;;;;;6264081;22;20204;-90
2022/04/26 06:28:38;;;;;;;19.90;11.23;;;;;;;;;;6262177;22;20155;-89
2022/04/26 06:31:47;;;;;;;19.52;10.25;;;;;;;;;;6264568;22;20155;-90
2022/04/26 06:34:54;;;;;;;22.63;10.35;;;;;;;;;;6263696;22;20162;-90
2022/04/26 06:38:00;;;;;;;19.58;9.82;;;;;;;;;;6263489;22;20241;-88
2022/04/26 06:41:05;;;;;;;19.05;10.10;;;;;;;;;;6264513;23;20210;-90
2022/04/26 06:44:11;;;;;;;20.17;9.52;;;;;;;;;;6263003;22;20206;-87
2022/04/26 06:47:18;;;;;;;26.88;9.57;;;;;;;;;;6264543;22;20171;-88
2022/04/26 06:50:23;;;;;;;20.05;9.65;;;;;;;;;;6264796;22;20174;-91
2022/04/26 06:53:30;;;;;;;16.73;8.27;;;;;;;;;;6263281;22;20167;-89
2022/04/26 06:56:36;;;;;;;13.73;8.27;;;;;;;;;;6263112;22;20186;-88
2022/04/26 06:59:42;;;;;;;16.02;8.23;;;;;;;;;;6264211;22;20178;-89
2022/04/26 07:02:48;;;;;;;12.82;7.55;;;;;;;;;;6266691;22;20173;-89
2022/04/26 07:05:54;;;;;;;20.63;7.65;;;;;;;;;;6249086;22;20219;-90
2022/04/26 22:01:45;;;;;;;4.87;1.70;;;;;;;;;;6219737;22;20431;-91
2022/04/26 22:04:50;;;;;;;0.63;0.63;;;;;;;;;;6239353;23;20170;-88
2022/04/26 22:07:56;;;;;;;0.70;0.70;;;;;;;;;;6238754;23;20783;-87
2022/04/26 22:11:01;;;;;;;3.30;0.85;;;;;;;;;;6240304;23;20158;-87
2022/04/26 22:14:06;;;;;;;2.83;0.83;;;;;;;;;;6238852;23;20167;-88
2022/04/26 22:17:16;;;;;;;3.47;1.70;;;;;;;;;;6241594;23;20174;-87
2022/04/26 22:20:22;;;;;;;0.70;0.70;;;;;;;;;;6244631;23;20183;-89
2022/04/26 22:23:27;;;;;;;1.03;1.03;;;;;;;;;;6248914;23;20235;-88
2022/04/26 22:26:33;;;;;;;0.67;0.60;;;;;;;;;;6241106;23;20622;-89
2022/04/26 22:29:38;;;;;;;1.50;0.90;;;;;;;;;;6246517;23;20162;-89
2022/04/26 22:32:45;;;;;;;0.70;0.70;;;;;;;;;;6244603;23;20159;-88
2022/04/26 22:35:50;;;;;;;2.87;1.10;;;;;;;;;;6244509;23;20656;-89
2022/04/26 22:38:55;;;;;;;0.95;0.90;;;;;;;;;;6243830;23;20778;-88
2022/04/26 22:42:00;;;;;;;0.43;0.40;;;;;;;;;;6244949;23;20182;-88
2022/04/26 22:45:06;;;;;;;0.70;0.60;;;;;;;;;;6262295;23;20251;-89
2022/04/26 22:48:14;;;;;;;1.80;0.83;;;;;;;;;;6243888;23;20171;-89
2022/04/26 22:51:20;;;;;;;1.17;0.80;;;;;;;;;;6242312;23;20188;-89
2022/04/26 22:54:25;;;;;;;0.70;0.70;;;;;;;;;;6247734;23;20162;-88
2022/04/26 22:57:31;;;;;;;0.50;0.50;;;;;;;;;;6247767;23;20171;-87
2022/04/26 23:00:36;;;;;;;4.03;1.48;;;;;;;;;;6243960;23;20174;-90
2022/04/26 23:03:44;;;;;;;0.60;0.60;;;;;;;;;;6261096;23;20266;-90
2022/04/26 23:06:50;;;;;;;0.80;0.80;;;;;;;;;;6260481;22;20174;-89
2022/04/26 23:09:55;;;;;;;0.67;0.67;;;;;;;;;;6259996;23;20175;-89
2022/04/26 23:13:00;;;;;;;0.80;0.80;;;;;;;;;;6261617;23;20173;-87
2022/04/26 23:16:06;;;;;;;1.90;0.80;;;;;;;;;;6263033;23;20174;-88
2022/04/26 23:19:13;;;;;;;0.60;0.60;;;;;;;;;;6260278;23;20295;-89
2022/04/26 23:22:21;;;;;;;0.97;0.80;;;;;;;;;;6261441;22;20182;-89
2022/04/26 23:25:26;;;;;;;1.77;0.93;;;;;;;;;;6259513;23;20162;-88
2022/04/26 23:28:32;;;;;;;2.33;0.90;;;;;;;;;;6258523;23;20171;-89
2022/04/26 23:31:37;;;;;;;0.73;0.73;;;;;;;;;;6259585;22;20142;-88
2022/04/26 23:38:09;;;;;;;0.40;0.40;;;;;;;;;;6260743;22;20167;-88
2022/04/26 23:41:14;;;;;;;1.27;1.17;;;;;;;;;;6259601;22;20167;-87
2022/04/26 23:44:19;;;;;;;2.30;1.07;;;;;;;;;;6258401;23;20194;-90
2022/04/26 23:47:24;;;;;;;0.83;0.67;;;;;;;;;;6259733;22;20154;-89
2022/04/26 23:53:54;;;;;;;0.80;0.80;;;;;;;;;;6258778;23;20175;-88
2022/04/26 23:57:00;;;;;;;1.23;0.80;;;;;;;;;;6258318;23;20162;-89
